createdAt,value
2023-05-04T01:12:18.753Z,85.30
2023-05-04T01:12:57.172Z,85.70
2023-05-04T01:13:35.413Z,85.70
2023-05-04T01:14:14.162Z,85.70
2023-05-04T01:14:48.853Z,86.20
2023-05-04T01:15:23.455Z,85.60
2023-05-04T01:15:58.273Z,85.60
2023-05-04T01:16:32.555Z,85.60
2023-05-04T01:17:08.648Z,85.70
2023-05-04T01:17:43.140Z,85.70
2023-05-04T01:18:17.432Z,85.70
2023-05-04T01:18:50.949Z,85.60
2023-05-04T01:19:25.077Z,85.60
2023-05-04T01:20:00.805Z,85.60
2023-05-04T01:20:34.278Z,85.60
2023-05-04T01:21:10.393Z,85.70
2023-05-04T01:21:46.601Z,85.60
2023-05-04T01:22:20.538Z,85.50
2023-05-04T01:22:53.610Z,85.40
2023-05-04T01:23:28.288Z,85.30
2023-05-04T01:24:03.237Z,85.20
2023-05-04T01:24:36.862Z,85.20
2023-05-04T01:25:12.648Z,85.20
2023-05-04T01:25:56.348Z,85.10
2023-05-04T01:26:33.767Z,85.80
2023-05-04T01:27:12.447Z,85.30
2023-05-04T01:27:51.053Z,85.20
2023-05-04T01:28:34.850Z,85.20
2023-05-04T01:29:17.062Z,85.20
2023-05-04T01:29:57.204Z,85.30
2023-05-04T01:30:35.606Z,85.40
2023-05-04T01:31:14.529Z,85.30
2023-05-04T01:31:52.928Z,85.20
2023-05-04T01:32:29.513Z,85.10
2023-05-04T01:33:05.872Z,85.10
2023-05-04T01:33:39.906Z,84.90
2023-05-04T01:34:13.600Z,84.90
2023-05-04T01:34:48.088Z,84.80
2023-05-04T01:35:23.411Z,84.70
2023-05-04T01:35:57.348Z,85.30
2023-05-04T01:36:33.741Z,84.70
2023-05-04T01:37:09.635Z,84.70
2023-05-04T01:37:42.390Z,84.60
2023-05-04T01:38:16.592Z,84.50
2023-05-04T01:38:54.147Z,84.50
2023-05-04T01:39:30.747Z,84.60
2023-05-04T01:40:05.952Z,84.70
2023-05-04T01:40:39.375Z,84.70
2023-05-04T01:41:12.449Z,84.60
2023-05-04T01:41:47.430Z,84.50
2023-05-04T01:42:22.248Z,84.50
2023-05-04T01:42:55.767Z,84.40
2023-05-04T01:43:30.109Z,84.30
2023-05-04T01:44:05.447Z,84.20
2023-05-04T01:44:39.830Z,84.10
2023-05-04T01:45:14.621Z,84.00
2023-05-04T01:45:49.766Z,83.90
2023-05-04T01:46:23.927Z,84.00
2023-05-04T01:46:58.169Z,84.00
2023-05-04T01:47:31.656Z,83.90
2023-05-04T01:48:07.520Z,83.90
2023-05-04T01:48:41.570Z,83.80
2023-05-04T01:49:15.655Z,83.80
2023-05-04T01:49:50.121Z,83.80
2023-05-04T01:50:23.971Z,83.80
2023-05-04T01:50:57.422Z,83.80
2023-05-04T01:51:31.248Z,83.80
2023-05-04T01:52:07.655Z,84.10
2023-05-04T01:52:42.932Z,83.80
2023-05-04T01:53:17.118Z,83.80
2023-05-04T01:53:49.881Z,83.70
2023-05-04T01:54:24.938Z,83.80
2023-05-04T01:54:58.559Z,83.80
2023-05-04T01:55:32.806Z,83.90
2023-05-04T01:56:08.502Z,84.00
2023-05-04T01:56:42.814Z,84.00
2023-05-04T01:57:15.890Z,84.00
2023-05-04T01:57:50.204Z,84.00
2023-05-04T01:58:24.530Z,84.10
2023-05-04T01:58:58.376Z,84.10
2023-05-04T01:59:33.953Z,84.10
2023-05-04T02:00:10.976Z,84.00
2023-05-04T02:00:51.531Z,84.00
2023-05-04T02:01:25.752Z,84.00
2023-05-04T02:01:59.240Z,84.10
2023-05-04T02:02:35.200Z,84.10
2023-05-04T02:03:10.172Z,84.10
2023-05-04T02:03:45.872Z,83.90
2023-05-04T02:04:20.743Z,84.00
2023-05-04T02:04:54.393Z,84.10
2023-05-04T02:05:27.990Z,84.10
2023-05-04T02:06:01.037Z,84.30
2023-05-04T02:06:35.021Z,84.20
2023-05-04T02:07:09.431Z,84.10
2023-05-04T02:07:44.854Z,84.00
2023-05-04T02:08:19.040Z,83.90
2023-05-04T02:08:53.775Z,83.90
2023-05-04T02:09:28.224Z,83.90
2023-05-04T02:10:01.784Z,84.00
2023-05-04T02:10:36.456Z,83.80
2023-05-04T02:11:09.415Z,83.70
2023-05-04T02:12:04.409Z,83.70
2023-05-04T02:12:38.125Z,83.70
2023-05-04T02:13:11.422Z,83.70
2023-05-04T02:13:47.782Z,83.70
2023-05-04T02:14:21.640Z,83.70
2023-05-04T02:14:54.988Z,83.70
2023-05-04T02:15:30.638Z,83.70
2023-05-04T02:16:03.277Z,83.60
2023-05-04T02:16:37.131Z,83.50
2023-05-04T02:17:11.640Z,83.50
2023-05-04T02:17:46.063Z,83.50
2023-05-04T02:18:19.572Z,83.40
2023-05-04T02:18:54.459Z,83.40
2023-05-04T02:19:28.499Z,83.40
2023-05-04T02:20:02.633Z,83.30
2023-05-04T02:20:38.343Z,83.40
2023-05-04T02:21:12.353Z,83.30
2023-05-04T02:21:47.997Z,83.30
2023-05-04T02:22:22.493Z,83.30
2023-05-04T02:22:59.015Z,83.30
2023-05-04T02:23:32.243Z,83.40
2023-05-04T02:24:08.971Z,83.40
2023-05-04T02:24:41.732Z,83.40
2023-05-04T02:25:14.330Z,83.50
2023-05-04T02:25:48.435Z,83.50
2023-05-04T02:26:22.301Z,83.60
2023-05-04T02:26:56.307Z,83.60
2023-05-04T02:27:29.947Z,83.50
2023-05-04T02:28:05.650Z,83.40
2023-05-04T02:28:39.555Z,83.30
2023-05-04T02:29:12.589Z,83.40
2023-05-04T02:29:46.936Z,83.40
2023-05-04T02:30:21.664Z,83.40
2023-05-04T02:30:56.042Z,83.30
2023-05-04T02:31:30.517Z,83.30
2023-05-04T02:32:06.469Z,83.40
2023-05-04T02:32:40.999Z,83.30
2023-05-04T02:33:14.877Z,83.20
2023-05-04T02:33:52.624Z,83.20
2023-05-04T02:34:26.476Z,83.20
2023-05-04T02:35:00.423Z,83.30
2023-05-04T02:35:36.976Z,83.50
2023-05-04T02:36:11.532Z,83.50
2023-05-04T02:36:44.616Z,83.50
2023-05-04T02:37:20.331Z,83.50
2023-05-04T02:37:53.897Z,83.50
2023-05-04T02:38:28.171Z,83.50
2023-05-04T02:39:03.040Z,83.40
2023-05-04T02:39:37.237Z,83.40
2023-05-04T02:40:14.536Z,83.30
2023-05-04T02:40:49.151Z,83.20
2023-05-04T02:41:26.100Z,83.10
2023-05-04T02:41:59.605Z,83.10
2023-05-04T02:42:33.940Z,83.00
2023-05-04T02:43:07.765Z,83.00
2023-05-04T02:43:41.981Z,83.10
2023-05-04T02:44:16.562Z,83.10
2023-05-04T02:44:51.035Z,83.10
2023-05-04T02:45:23.649Z,83.10
2023-05-04T02:45:57.913Z,83.10
2023-05-04T02:46:31.821Z,83.10
2023-05-04T02:47:07.252Z,83.10
2023-05-04T02:47:42.512Z,83.00
2023-05-04T02:48:16.046Z,83.00
2023-05-04T02:48:50.255Z,83.00
2023-05-04T02:49:24.710Z,82.90
2023-05-04T02:49:59.864Z,82.90
2023-05-04T02:50:33.821Z,82.80
2023-05-04T02:51:06.530Z,82.70
2023-05-04T02:51:41.571Z,82.50
2023-05-04T02:52:15.405Z,82.50
2023-05-04T02:52:50.197Z,82.50
2023-05-04T02:53:25.190Z,82.40
2023-05-04T02:53:59.741Z,82.30
2023-05-04T02:54:33.801Z,82.20
2023-05-04T02:55:09.908Z,82.00
2023-05-04T02:55:43.738Z,81.80
2023-05-04T02:56:17.002Z,81.70
2023-05-04T02:56:51.035Z,81.60
2023-05-04T02:57:25.433Z,81.50
2023-05-04T02:57:59.837Z,81.30
2023-05-04T02:58:35.448Z,81.50
2023-05-04T02:59:08.201Z,81.20
2023-05-04T02:59:41.848Z,81.10
2023-05-04T03:00:18.262Z,80.90
2023-05-04T03:00:56.310Z,80.90
2023-05-04T03:01:30.840Z,80.90
2023-05-04T03:02:07.108Z,80.90
2023-05-04T03:02:41.142Z,80.80
2023-05-04T03:03:14.445Z,80.80
2023-05-04T03:03:50.275Z,80.90
2023-05-04T03:04:23.793Z,81.10
2023-05-04T03:04:59.252Z,81.50
2023-05-04T03:05:33.732Z,81.80
2023-05-04T03:06:08.568Z,82.10
2023-05-04T03:06:43.900Z,82.10
2023-05-04T03:07:17.340Z,82.10
2023-05-04T03:07:51.628Z,81.90
2023-05-04T03:08:26.182Z,81.70
2023-05-04T03:09:01.397Z,81.40
2023-05-04T03:09:35.359Z,81.00
2023-05-04T03:10:11.890Z,80.50
2023-05-04T03:10:46.035Z,79.80
2023-05-04T03:11:18.906Z,79.10
2023-05-04T03:11:54.423Z,78.50
2023-05-04T03:12:27.349Z,77.60
2023-05-04T03:13:06.151Z,76.90
2023-05-04T03:13:42.521Z,76.30
2023-05-04T03:14:15.859Z,75.70
2023-05-04T03:14:51.283Z,75.10
2023-05-04T03:15:26.580Z,74.60
2023-05-04T03:16:01.071Z,74.30
2023-05-04T03:16:34.559Z,74.00
2023-05-04T03:17:09.992Z,73.70
2023-05-04T03:17:44.104Z,73.70
2023-05-04T03:18:17.582Z,73.70
2023-05-04T03:18:52.011Z,73.60
2023-05-04T03:19:26.804Z,73.60
2023-05-04T03:20:00.510Z,73.40
2023-05-04T03:20:38.103Z,73.20
2023-05-04T03:21:10.875Z,73.00
2023-05-04T03:21:44.116Z,73.00
2023-05-04T03:22:17.915Z,72.90
2023-05-04T03:22:51.007Z,72.80
2023-05-04T03:23:26.584Z,72.60
2023-05-04T03:24:02.468Z,72.30
2023-05-04T03:24:37.180Z,72.10
2023-05-04T03:25:13.419Z,72.00
2023-05-04T03:25:46.469Z,71.70
2023-05-04T03:26:22.170Z,71.30
2023-05-04T03:26:58.130Z,71.30
2023-05-04T03:27:31.630Z,71.80
2023-05-04T03:28:07.293Z,71.20
2023-05-04T03:28:41.451Z,71.20
2023-05-04T03:29:16.049Z,70.80
2023-05-04T03:29:49.414Z,70.70
2023-05-04T03:30:24.474Z,70.60
2023-05-04T03:31:02.665Z,70.50
2023-05-04T03:31:36.051Z,70.20
2023-05-04T03:32:10.607Z,70.10
2023-05-04T03:32:43.875Z,70.00
2023-05-04T03:33:17.373Z,69.50
2023-05-04T03:33:52.324Z,69.50
2023-05-04T03:34:27.887Z,69.50
2023-05-04T03:35:09.960Z,69.60
2023-05-04T03:35:45.275Z,69.50
2023-05-04T03:36:19.816Z,69.10
2023-05-04T03:36:56.221Z,68.90
2023-05-04T03:37:32.463Z,69.50
2023-05-04T03:38:07.386Z,69.20
2023-05-04T03:38:42.338Z,69.30
2023-05-04T03:39:18.148Z,69.20
2023-05-04T03:39:52.940Z,68.90
2023-05-04T03:40:26.229Z,68.80
2023-05-04T03:41:01.867Z,68.70
2023-05-04T03:41:36.907Z,68.60
2023-05-04T03:42:11.664Z,68.50
2023-05-04T03:42:47.365Z,68.50
2023-05-04T03:43:20.348Z,68.50
2023-05-04T03:43:56.300Z,68.30
2023-05-04T03:44:30.206Z,67.70
2023-05-04T03:45:04.771Z,66.60
2023-05-04T03:45:38.505Z,66.10
2023-05-04T03:46:12.641Z,65.80
2023-05-04T03:46:47.029Z,65.70
2023-05-04T03:47:21.566Z,65.70
2023-05-04T03:47:55.305Z,65.80
2023-05-04T03:48:28.931Z,65.90
2023-05-04T03:49:03.139Z,66.00
2023-05-04T03:49:36.379Z,66.00
2023-05-04T03:50:11.752Z,66.00
2023-05-04T03:50:46.306Z,65.70
2023-05-04T03:51:20.132Z,65.60
2023-05-04T03:51:54.707Z,64.90
2023-05-04T03:52:29.154Z,64.70
2023-05-04T03:53:02.689Z,64.70
2023-05-04T03:53:39.228Z,64.80
2023-05-04T03:54:13.657Z,64.90
2023-05-04T03:54:50.204Z,65.20
2023-05-04T03:55:24.317Z,65.40
2023-05-04T03:55:58.182Z,65.50
2023-05-04T03:56:32.489Z,65.60
2023-05-04T03:57:06.861Z,65.50
2023-05-04T03:57:42.249Z,65.30
2023-05-04T03:58:17.127Z,65.30
2023-05-04T03:58:51.921Z,64.80
2023-05-04T03:59:30.614Z,65.30
2023-05-04T04:00:08.294Z,65.10
2023-05-04T04:00:48.376Z,64.90
2023-05-04T04:01:22.915Z,64.60
2023-05-04T04:01:56.459Z,64.40
2023-05-04T04:02:29.881Z,63.50
2023-05-04T04:03:05.625Z,63.10
2023-05-04T04:03:41.676Z,62.80
2023-05-04T04:04:17.997Z,63.00
2023-05-04T04:04:52.823Z,62.90
2023-05-04T04:05:28.661Z,62.60
2023-05-04T04:06:04.157Z,62.60
2023-05-04T04:06:37.721Z,62.70
2023-05-04T04:07:12.026Z,62.60
2023-05-04T04:07:46.972Z,62.80
2023-05-04T04:08:21.640Z,62.10
2023-05-04T04:08:55.060Z,62.00
2023-05-04T04:09:30.439Z,61.90
2023-05-04T04:10:07.374Z,61.60
2023-05-04T04:10:41.302Z,60.80
2023-05-04T04:11:16.850Z,60.60
2023-05-04T04:11:50.416Z,60.40
2023-05-04T04:12:23.736Z,59.60
2023-05-04T04:12:59.109Z,59.10
2023-05-04T04:13:32.434Z,58.70
2023-05-04T04:14:07.216Z,58.30
2023-05-04T04:14:41.967Z,58.30
2023-05-04T04:15:15.860Z,58.00
2023-05-04T04:15:51.102Z,57.50
2023-05-04T04:16:24.917Z,57.10
2023-05-04T04:16:58.947Z,56.40
2023-05-04T04:17:32.541Z,56.20
2023-05-04T04:18:06.725Z,55.90
2023-05-04T04:18:40.928Z,55.70
2023-05-04T04:19:15.585Z,55.70
2023-05-04T04:19:50.069Z,55.50
2023-05-04T04:20:23.801Z,55.60
2023-05-04T04:20:58.139Z,55.80
2023-05-04T04:21:32.032Z,55.70
2023-05-04T04:22:06.749Z,55.80
2023-05-04T04:22:40.281Z,55.20
2023-05-04T04:23:14.113Z,55.00
2023-05-04T04:23:51.177Z,54.90
2023-05-04T04:24:25.123Z,54.60
2023-05-04T04:24:59.448Z,54.30
2023-05-04T04:25:34.888Z,54.20
2023-05-04T04:26:08.717Z,54.00
2023-05-04T04:26:42.346Z,54.00
2023-05-04T04:27:16.466Z,53.80
2023-05-04T04:27:49.980Z,53.60
2023-05-04T04:28:59.522Z,53.10
2023-05-04T04:29:36.089Z,54.00
2023-05-04T04:30:11.822Z,53.80
2023-05-04T04:30:46.331Z,53.60
2023-05-04T04:31:20.583Z,53.60
2023-05-04T04:31:54.676Z,53.70
2023-05-04T04:33:04.313Z,51.80
2023-05-04T04:33:38.084Z,52.50
2023-05-04T04:34:12.151Z,52.20
2023-05-04T04:35:19.141Z,50.90
2023-05-04T04:35:53.751Z,50.70
2023-05-04T04:36:27.892Z,50.40
2023-05-04T04:37:01.917Z,48.70
2023-05-04T04:37:36.261Z,48.30
2023-05-04T04:38:09.433Z,47.00
2023-05-04T04:38:44.127Z,45.90
2023-05-04T04:39:19.544Z,46.50
2023-05-04T04:39:53.186Z,45.50
2023-05-04T04:40:26.918Z,45.10
2023-05-04T06:55:09.209Z,32.80
2023-05-04T06:55:43.212Z,33.10
2023-05-04T06:56:18.262Z,33.00
2023-05-04T06:56:52.396Z,32.90
2023-05-04T06:57:30.585Z,32.90
2023-05-04T06:58:05.488Z,32.50
2023-05-04T06:58:39.749Z,32.20
2023-05-04T06:59:13.398Z,32.00
2023-05-04T06:59:47.713Z,32.10
2023-05-04T07:00:23.995Z,32.40
2023-05-04T07:00:57.123Z,32.00
2023-05-04T07:01:31.511Z,32.60
2023-05-04T07:02:05.388Z,32.70
2023-05-04T07:02:40.160Z,32.70
2023-05-04T07:03:15.469Z,32.70
2023-05-04T07:07:55.908Z,32.70
2023-05-04T07:18:21.418Z,28.80
2023-05-04T07:22:42.570Z,27.60
2023-05-04T07:23:50.682Z,27.40
2023-05-04T07:24:30.868Z,27.80
2023-05-04T07:25:06.308Z,27.20
2023-05-04T07:25:40.647Z,27.60
2023-05-04T07:26:48.910Z,26.50
2023-05-04T07:27:23.603Z,26.70
2023-05-04T07:27:59.417Z,26.70
2023-05-04T07:29:10.506Z,25.70
2023-05-04T07:29:45.969Z,26.10
2023-05-04T07:31:30.641Z,25.90
2023-05-04T07:32:07.125Z,26.40
2023-05-04T07:32:39.900Z,26.30
2023-05-04T07:33:16.268Z,25.90
2023-05-04T07:33:51.596Z,25.80
2023-05-04T07:34:37.878Z,25.60
2023-05-04T07:35:19.910Z,25.70
2023-05-04T07:35:59.179Z,25.40
2023-05-04T07:36:36.098Z,25.30
2023-05-04T07:37:11.938Z,25.20
2023-05-04T07:37:47.139Z,24.80
2023-05-04T07:38:22.628Z,24.90
2023-05-04T07:38:57.080Z,24.70
2023-05-04T07:39:31.122Z,24.50
2023-05-04T07:40:08.443Z,24.70
2023-05-04T07:40:43.387Z,24.60
2023-05-04T07:41:16.764Z,24.70
2023-05-04T07:41:51.880Z,24.40
2023-05-04T07:42:28.079Z,23.90
2023-05-04T07:43:03.523Z,23.80
2023-05-04T07:43:39.424Z,23.80
2023-05-04T07:44:14.075Z,23.90
2023-05-04T07:44:49.144Z,24.00
2023-05-04T07:45:23.019Z,23.70
2023-05-04T07:45:59.059Z,23.50
2023-05-04T07:46:32.401Z,23.30
2023-05-04T07:47:08.183Z,23.30
2023-05-04T07:47:42.309Z,23.20
2023-05-04T07:48:18.100Z,23.30
2023-05-04T07:48:52.295Z,23.30
2023-05-04T07:49:27.162Z,23.40
2023-05-04T07:50:01.586Z,23.60
2023-05-04T07:50:38.141Z,23.50
2023-05-04T07:51:14.935Z,23.90
2023-05-04T07:51:51.629Z,24.00
2023-05-04T07:52:25.842Z,24.10
2023-05-04T07:53:01.219Z,24.20
2023-05-04T07:53:34.566Z,24.20
2023-05-04T07:54:09.818Z,24.20
2023-05-04T07:56:29.838Z,24.50
2023-05-04T07:57:03.772Z,24.80
2023-05-04T07:57:37.849Z,24.70
2023-05-04T07:58:17.164Z,24.90
2023-05-04T07:58:50.662Z,25.10
2023-05-04T07:59:25.160Z,25.40
2023-05-04T07:59:58.652Z,25.50
2023-05-04T08:00:33.005Z,25.40
2023-05-04T08:01:06.574Z,25.30
2023-05-04T08:01:42.548Z,25.40
2023-05-04T08:02:17.093Z,25.80
2023-05-04T08:02:52.619Z,25.60
2023-05-04T08:05:48.321Z,25.30
2023-05-04T08:06:23.426Z,25.80
2023-05-04T08:06:57.714Z,26.10
2023-05-04T08:07:32.996Z,26.00
2023-05-04T08:08:08.837Z,25.50
2023-05-04T08:08:44.868Z,25.90
2023-05-04T08:09:20.513Z,26.20
2023-05-04T08:09:56.546Z,26.30
2023-05-04T08:10:29.804Z,26.60
2023-05-04T08:11:18.762Z,26.80
2023-05-04T08:11:54.968Z,27.10
2023-05-04T08:12:29.388Z,26.90
2023-05-04T08:13:03.609Z,26.50
2023-05-04T08:13:39.938Z,26.40
2023-05-04T08:14:14.073Z,26.10
2023-05-04T08:14:52.313Z,26.00
2023-05-04T08:15:25.783Z,26.00
2023-05-04T08:16:02.526Z,26.10
2023-05-04T08:16:36.672Z,26.00
2023-05-04T08:17:13.073Z,26.00
2023-05-04T08:17:47.559Z,26.00
2023-05-04T08:18:22.256Z,26.10
2023-05-04T08:18:56.490Z,26.20
2023-05-04T08:19:32.103Z,26.50
2023-05-04T08:20:06.219Z,26.40
2023-05-04T08:20:41.843Z,26.70
2023-05-04T08:21:16.048Z,26.50
2023-05-04T08:21:50.548Z,26.10
2023-05-04T08:22:24.732Z,26.00
2023-05-04T08:22:59.806Z,26.00
2023-05-04T08:23:34.106Z,25.90
2023-05-04T08:24:09.701Z,26.00
2023-05-04T08:24:43.081Z,25.80
2023-05-04T08:25:18.538Z,25.50
2023-05-04T08:25:54.291Z,25.60
2023-05-04T08:26:29.441Z,25.70
2023-05-04T08:27:08.073Z,25.80
2023-05-04T08:27:43.812Z,25.70
2023-05-04T08:28:17.578Z,26.30
2023-05-04T08:28:52.974Z,25.70
2023-05-04T08:29:27.127Z,25.60
2023-05-04T08:30:02.298Z,25.50
2023-05-04T08:30:39.419Z,25.60
2023-05-04T08:31:14.362Z,25.70
2023-05-04T08:31:49.842Z,25.60
2023-05-04T08:32:25.087Z,25.60
2023-05-04T08:32:59.445Z,25.60
2023-05-04T08:33:34.869Z,25.80
2023-05-04T08:34:07.906Z,25.50
2023-05-04T08:35:17.922Z,25.70
2023-05-04T08:35:53.540Z,26.10
2023-05-04T09:01:38.879Z,26.90
2023-05-04T09:02:16.349Z,29.10
2023-05-04T09:02:50.352Z,29.10
2023-05-04T09:03:25.781Z,29.00
2023-05-04T09:04:02.563Z,29.00
2023-05-04T09:04:37.732Z,29.30
2023-05-04T09:05:12.240Z,29.40
2023-05-04T09:06:59.152Z,28.80
2023-05-04T09:07:34.982Z,29.30
2023-05-04T09:08:08.410Z,29.20
2023-05-04T09:08:41.982Z,28.90
2023-05-04T09:09:17.722Z,28.90
2023-05-04T09:09:52.284Z,28.90
2023-05-04T09:10:29.374Z,29.10
2023-05-04T09:11:04.653Z,28.80
2023-05-04T09:11:40.037Z,29.10
2023-05-04T09:12:14.339Z,29.40
2023-05-04T09:12:48.938Z,29.50
2023-05-04T09:13:23.252Z,29.50
2023-05-04T09:13:57.854Z,29.50
2023-05-04T09:14:38.042Z,29.30
2023-05-04T09:15:17.540Z,29.20
2023-05-04T09:15:59.871Z,29.00
2023-05-04T09:16:37.478Z,28.90
2023-05-04T09:17:17.818Z,28.90
2023-05-04T09:18:02.693Z,28.90
2023-05-04T09:18:39.670Z,28.90
2023-05-04T09:19:20.997Z,29.00
2023-05-04T09:20:02.946Z,29.00
2023-05-04T09:20:45.165Z,28.90
2023-05-04T09:21:30.311Z,29.10
2023-05-04T09:22:14.518Z,28.90
2023-05-04T09:22:50.230Z,28.90
2023-05-04T09:23:24.257Z,28.90
2023-05-04T09:23:59.534Z,29.00
2023-05-04T09:24:33.225Z,29.40
2023-05-04T09:25:14.556Z,29.60
2023-05-04T09:25:49.899Z,29.70
2023-05-04T09:26:32.059Z,29.70
2023-05-04T09:27:10.648Z,29.70
2023-05-04T09:27:53.952Z,29.60
2023-05-04T09:28:38.646Z,29.50
2023-05-04T09:29:13.645Z,30.00
2023-05-04T09:29:56.197Z,29.70
2023-05-04T09:30:30.766Z,29.50
2023-05-04T09:31:08.096Z,30.00
2023-05-04T09:31:45.324Z,30.40
2023-05-04T09:32:20.536Z,30.20
2023-05-04T09:32:54.767Z,30.00
2023-05-04T09:33:28.852Z,30.80
2023-05-04T09:34:10.422Z,30.50
2023-05-04T10:29:12.969Z,29.30
2023-05-04T10:29:50.826Z,30.40
2023-05-04T10:30:25.321Z,29.60
2023-05-04T11:31:56.455Z,30.00
2023-05-04T11:32:38.443Z,31.80
2023-05-04T11:33:15.877Z,30.90
2023-05-04T11:33:49.944Z,30.80
2023-05-04T11:34:24.801Z,30.90
2023-05-04T11:34:59.193Z,31.10
2023-05-04T11:36:09.003Z,31.30
2023-05-04T11:36:42.880Z,31.30
2023-05-04T11:37:17.952Z,31.40
2023-05-04T11:53:22.208Z,31.20
2023-05-04T11:53:57.653Z,31.60
2023-05-04T11:54:32.473Z,31.40
2023-05-04T11:55:09.290Z,31.30
2023-05-04T11:55:44.128Z,31.30
2023-05-04T11:56:19.040Z,31.60
2023-05-04T11:56:55.239Z,31.70
2023-05-04T11:57:28.990Z,31.70
2023-05-04T11:58:06.899Z,31.60
2023-05-04T11:58:42.025Z,31.50
2023-05-04T11:59:16.693Z,31.50
2023-05-04T11:59:50.475Z,31.40
2023-05-04T12:00:37.575Z,31.50
2023-05-04T12:01:12.703Z,31.90
2023-05-04T12:01:45.955Z,32.20
2023-05-04T12:02:21.297Z,31.90
2023-05-04T12:03:00.956Z,31.70
2023-05-04T12:03:53.209Z,31.60
2023-05-04T12:04:32.818Z,31.30
2023-05-04T12:05:14.636Z,31.40
2023-05-04T12:05:53.120Z,31.30
2023-05-04T12:06:33.975Z,31.20
2023-05-04T12:07:09.153Z,31.20
2023-05-04T12:07:44.102Z,31.30
2023-05-04T12:08:28.180Z,31.40
2023-05-04T12:09:05.423Z,31.70
2023-05-04T12:09:46.761Z,31.60
2023-05-04T12:10:27.251Z,31.60
2023-05-04T12:11:15.440Z,31.40
2023-05-04T12:11:56.101Z,30.80
2023-05-04T12:12:37.345Z,30.70
2023-05-04T12:13:17.790Z,30.60
2023-05-04T12:14:04.126Z,30.80
2023-05-04T12:14:47.586Z,30.90
2023-05-04T12:15:29.887Z,31.00
2023-05-04T12:16:11.342Z,31.10
2023-05-04T12:16:56.916Z,31.00
2023-05-04T12:17:40.627Z,31.30
2023-05-04T12:18:29.848Z,31.60
2023-05-04T12:19:05.322Z,31.70
2023-05-04T12:19:49.513Z,31.50
2023-05-04T12:20:25.557Z,31.40
2023-05-04T12:21:10.116Z,31.80
2023-05-04T12:21:52.027Z,31.30
2023-05-04T12:22:29.894Z,31.60
2023-05-04T12:23:07.234Z,31.70
2023-05-04T12:23:42.412Z,31.80
2023-05-04T12:24:16.690Z,31.90
2023-05-04T12:24:53.516Z,32.10
2023-05-04T12:25:27.661Z,31.60
2023-05-04T12:26:03.537Z,31.40
2023-05-04T12:26:38.368Z,31.10
2023-05-04T12:27:16.662Z,30.80
2023-05-04T12:27:49.958Z,30.70
2023-05-04T12:28:26.955Z,30.70
2023-05-04T12:28:59.609Z,30.90
2023-05-04T12:29:34.465Z,30.90
2023-05-04T12:30:09.522Z,31.00
2023-05-04T12:30:45.512Z,31.20
2023-05-04T12:31:19.756Z,31.00
2023-05-04T12:31:56.107Z,30.80
2023-05-04T12:32:31.070Z,30.80
2023-05-04T12:33:07.062Z,30.90
2023-05-04T12:33:42.747Z,31.00
2023-05-04T12:34:17.599Z,31.30
2023-05-04T12:34:50.890Z,31.20
2023-05-04T12:35:27.407Z,30.90
2023-05-04T12:36:01.800Z,30.60
2023-05-04T12:36:36.315Z,30.50
2023-05-04T12:37:09.090Z,30.50
2023-05-04T12:37:44.424Z,30.60
2023-05-04T12:38:18.089Z,30.70
2023-05-04T12:38:52.838Z,30.70
2023-05-04T12:39:26.217Z,30.80
2023-05-04T12:39:59.374Z,30.90
2023-05-04T12:40:33.907Z,31.20
2023-05-04T12:41:10.905Z,31.20
2023-05-04T12:41:46.221Z,31.30
2023-05-04T12:42:20.985Z,31.50
2023-05-04T12:42:55.780Z,31.60
2023-05-04T12:43:29.776Z,31.70
2023-05-04T12:44:05.283Z,31.90
2023-05-04T12:44:39.130Z,31.40
2023-05-04T12:45:16.195Z,31.20
2023-05-04T12:45:49.915Z,31.20
2023-05-04T12:46:24.513Z,31.40
2023-05-04T12:46:57.246Z,31.50
2023-05-04T12:47:33.235Z,31.40
2023-05-04T12:48:08.544Z,31.50
2023-05-04T12:48:45.054Z,31.20
2023-05-04T12:49:23.398Z,31.00
2023-05-04T12:50:00.171Z,30.90
2023-05-04T12:50:33.951Z,31.00
2023-05-04T12:51:08.841Z,31.30
2023-05-04T12:51:42.130Z,31.20
2023-05-04T12:52:16.275Z,31.30
2023-05-04T12:52:51.162Z,31.40
2023-05-04T12:53:27.880Z,31.60
2023-05-04T12:54:02.501Z,31.70
2023-05-04T12:54:36.486Z,31.50
2023-05-04T12:55:11.213Z,31.50
2023-05-04T12:55:44.118Z,31.60
2023-05-04T12:56:17.775Z,31.60
2023-05-04T12:56:52.152Z,31.40
2023-05-04T12:57:27.316Z,31.50
2023-05-04T12:58:01.769Z,31.40
2023-05-04T12:58:36.384Z,31.30
2023-05-04T12:59:10.502Z,31.30
2023-05-04T12:59:45.881Z,31.30
2023-05-04T13:00:53.960Z,31.20
2023-05-04T13:01:28.108Z,31.50
2023-05-04T13:02:02.199Z,31.40
2023-05-04T13:02:36.207Z,31.40
2023-05-04T13:03:13.387Z,31.50
2023-05-04T13:03:49.422Z,31.50
2023-05-04T13:04:24.368Z,31.60
2023-05-04T13:04:59.171Z,31.50
2023-05-04T13:05:32.480Z,31.40
2023-05-04T13:06:09.192Z,31.30
2023-05-04T13:06:42.813Z,31.10
2023-05-04T13:07:18.298Z,31.20
2023-05-04T13:07:52.788Z,31.40
2023-05-04T13:08:28.627Z,31.60
2023-05-04T13:09:05.366Z,31.80
2023-05-04T13:09:41.534Z,31.70
2023-05-04T13:10:16.015Z,31.70
2023-05-04T13:10:50.901Z,31.80
2023-05-04T13:11:25.389Z,31.80
2023-05-04T13:11:59.355Z,31.90
2023-05-04T13:12:34.097Z,31.70
2023-05-04T13:13:07.645Z,31.50
2023-05-04T13:13:43.495Z,31.20
2023-05-04T13:14:16.811Z,31.00
2023-05-04T13:14:56.043Z,30.70
2023-05-04T13:15:30.877Z,30.70
2023-05-04T13:16:08.176Z,30.40
2023-05-04T13:16:42.332Z,30.40
2023-05-04T13:17:15.314Z,30.60
2023-05-04T13:17:50.482Z,30.70
2023-05-04T13:18:27.919Z,30.90
2023-05-04T13:19:05.772Z,31.00
2023-05-04T13:19:39.562Z,31.40
2023-05-04T13:20:14.497Z,31.40
2023-05-04T13:20:47.974Z,31.30
2023-05-04T13:21:22.686Z,31.20
2023-05-04T13:21:57.692Z,31.10
2023-05-04T13:22:33.499Z,30.90
2023-05-04T13:23:07.792Z,30.90
2023-05-04T13:23:41.791Z,30.90
2023-05-04T13:24:16.585Z,30.80
2023-05-04T13:24:49.345Z,30.70
2023-05-04T13:25:24.573Z,30.70
2023-05-04T13:25:57.437Z,31.00
2023-05-04T13:26:33.804Z,31.10
2023-05-04T13:27:08.080Z,31.30
2023-05-04T13:27:44.092Z,31.40
2023-05-04T13:28:18.473Z,31.60
2023-05-04T13:28:54.119Z,31.80
2023-05-04T13:29:28.171Z,32.00
2023-05-04T13:30:04.219Z,32.00
2023-05-04T13:30:39.324Z,31.60
2023-05-04T13:31:12.946Z,31.10
2023-05-04T13:31:50.102Z,31.00
2023-05-04T13:32:26.758Z,30.80
2023-05-04T13:33:07.700Z,30.70
2023-05-04T13:33:50.638Z,30.70
2023-05-04T13:34:26.449Z,30.60
2023-05-04T13:35:00.305Z,30.50
2023-05-04T13:35:35.429Z,30.30
2023-05-04T13:36:09.953Z,30.30
2023-05-04T13:36:45.939Z,30.40
2023-05-04T13:37:19.709Z,30.40
2023-05-04T13:37:53.738Z,30.70
2023-05-04T13:38:28.298Z,30.70
2023-05-04T13:39:03.124Z,30.60
2023-05-04T13:39:43.230Z,30.50
2023-05-04T13:40:18.038Z,30.50
2023-05-04T13:40:53.588Z,30.40
2023-05-04T13:41:28.141Z,30.60
2023-05-04T13:42:01.501Z,30.70
2023-05-04T13:42:37.582Z,30.70
2023-05-04T13:43:12.611Z,30.90
2023-05-04T13:43:50.121Z,31.00
2023-05-04T13:44:24.828Z,31.00
2023-05-04T13:44:58.462Z,30.80
2023-05-04T13:45:33.184Z,30.80
2023-05-04T13:46:07.788Z,30.80
2023-05-04T13:46:42.122Z,30.90
2023-05-04T13:47:17.695Z,31.00
2023-05-04T13:47:50.636Z,31.30
2023-05-04T13:48:26.408Z,31.60
2023-05-04T13:49:01.208Z,31.70
2023-05-04T13:49:37.014Z,31.90
2023-05-04T13:50:14.125Z,32.00
2023-05-04T13:50:48.013Z,32.10
2023-05-04T13:51:22.571Z,32.00
2023-05-04T13:51:57.194Z,32.10
2023-05-04T13:52:32.548Z,32.20
2023-05-04T13:53:08.005Z,32.40
2023-05-04T13:53:42.488Z,32.50
2023-05-04T13:54:18.113Z,32.70
2023-05-04T13:54:55.501Z,32.70
2023-05-04T13:55:30.715Z,32.70
2023-05-04T13:56:05.650Z,32.30
2023-05-04T13:56:41.650Z,32.00
2023-05-04T13:57:16.040Z,31.80
2023-05-04T13:57:52.724Z,32.00
2023-05-04T13:58:26.874Z,31.70
2023-05-04T13:59:02.265Z,31.80
2023-05-04T13:59:40.312Z,31.80
2023-05-04T14:00:18.894Z,32.30
2023-05-04T14:00:52.316Z,31.70
2023-05-04T14:01:27.694Z,31.80
2023-05-04T14:02:01.569Z,31.80
2023-05-04T14:02:36.790Z,31.80
2023-05-04T14:03:09.610Z,31.80
2023-05-04T14:03:44.440Z,32.00
2023-05-04T14:04:20.395Z,32.00
2023-05-04T14:04:56.093Z,32.10
2023-05-04T14:05:29.733Z,32.00
2023-05-04T14:06:05.011Z,32.00
2023-05-04T14:06:38.290Z,31.90
2023-05-04T14:07:12.075Z,31.90
2023-05-04T14:07:46.750Z,31.90
2023-05-04T14:08:21.215Z,32.00